sensor_id;sensor_type;location;lat;lon;timestamp;temperature;humidity
67054;SHT31;53960;51.826;5.850;2023-06-14T00:00:09;20.84;44.78
67054;SHT31;53960;51.826;5.850;2023-06-14T00:02:35;20.81;44.65
67054;SHT31;53960;51.826;5.850;2023-06-14T00:05:01;20.78;44.86
67054;SHT31;53960;51.826;5.850;2023-06-14T00:07:37;20.72;44.85
67054;SHT31;53960;51.826;5.850;2023-06-14T00:10:03;20.71;44.83
67054;SHT31;53960;51.826;5.850;2023-06-14T00:12:30;20.64;44.90
67054;SHT31;53960;51.826;5.850;2023-06-14T00:14:56;20.57;45.24
67054;SHT31;53960;51.826;5.850;2023-06-14T00:17:21;20.51;45.44
67054;SHT31;53960;51.826;5.850;2023-06-14T00:19:47;20.47;45.34
67054;SHT31;53960;51.826;5.850;2023-06-14T00:22:13;20.50;45.45
67054;SHT31;53960;51.826;5.850;2023-06-14T00:24:38;20.43;45.48
67054;SHT31;53960;51.826;5.850;2023-06-14T00:27:03;20.45;45.42
67054;SHT31;53960;51.826;5.850;2023-06-14T00:29:29;20.41;45.68
67054;SHT31;53960;51.826;5.850;2023-06-14T00:31:54;20.30;45.86
67054;SHT31;53960;51.826;5.850;2023-06-14T00:34:19;20.30;45.93
67054;SHT31;53960;51.826;5.850;2023-06-14T00:36:45;20.30;45.98
67054;SHT31;53960;51.826;5.850;2023-06-14T00:39:10;20.24;45.97
67054;SHT31;53960;51.826;5.850;2023-06-14T00:41:37;20.24;46.17
67054;SHT31;53960;51.826;5.850;2023-06-14T00:44:02;20.29;46.05
67054;SHT31;53960;51.826;5.850;2023-06-14T00:46:28;20.23;46.16
67054;SHT31;53960;51.826;5.850;2023-06-14T00:48:54;20.17;46.28
67054;SHT31;53960;51.826;5.850;2023-06-14T00:51:21;20.10;46.56
67054;SHT31;53960;51.826;5.850;2023-06-14T00:53:46;20.14;46.39
67054;SHT31;53960;51.826;5.850;2023-06-14T00:56:13;20.06;46.67
67054;SHT31;53960;51.826;5.850;2023-06-14T00:58:40;20.09;46.59
67054;SHT31;53960;51.826;5.850;2023-06-14T01:01:06;20.01;46.79
67054;SHT31;53960;51.826;5.850;2023-06-14T01:03:32;20.08;46.60
67054;SHT31;53960;51.826;5.850;2023-06-14T01:06:31;20.00;46.81
67054;SHT31;53960;51.826;5.850;2023-06-14T01:09:43;19.97;46.95
67054;SHT31;53960;51.826;5.850;2023-06-14T01:12:23;19.97;47.12
67054;SHT31;53960;51.826;5.850;2023-06-14T01:14:50;19.82;47.28
67054;SHT31;53960;51.826;5.850;2023-06-14T01:17:17;19.80;47.47
67054;SHT31;53960;51.826;5.850;2023-06-14T01:19:43;19.76;47.44
67054;SHT31;53960;51.826;5.850;2023-06-14T01:22:09;19.75;47.70
67054;SHT31;53960;51.826;5.850;2023-06-14T01:24:35;19.71;47.94
67054;SHT31;53960;51.826;5.850;2023-06-14T01:27:02;19.65;48.05
67054;SHT31;53960;51.826;5.850;2023-06-14T01:29:28;19.63;48.08
67054;SHT31;53960;51.826;5.850;2023-06-14T01:31:58;19.58;48.20
67054;SHT31;53960;51.826;5.850;2023-06-14T01:34:24;19.63;48.34
67054;SHT31;53960;51.826;5.850;2023-06-14T01:36:50;19.54;48.35
67054;SHT31;53960;51.826;5.850;2023-06-14T01:39:15;19.62;48.21
67054;SHT31;53960;51.826;5.850;2023-06-14T01:41:42;19.54;48.66
67054;SHT31;53960;51.826;5.850;2023-06-14T01:44:08;19.48;48.69
67054;SHT31;53960;51.826;5.850;2023-06-14T01:46:34;19.49;48.68
67054;SHT31;53960;51.826;5.850;2023-06-14T01:49:00;19.49;48.68
67054;SHT31;53960;51.826;5.850;2023-06-14T01:51:25;19.41;48.95
67054;SHT31;53960;51.826;5.850;2023-06-14T01:53:51;19.39;49.12
67054;SHT31;53960;51.826;5.850;2023-06-14T01:56:16;19.45;49.10
67054;SHT31;53960;51.826;5.850;2023-06-14T01:58:42;19.32;49.44
67054;SHT31;53960;51.826;5.850;2023-06-14T02:01:07;19.17;49.90
67054;SHT31;53960;51.826;5.850;2023-06-14T02:03:33;19.24;49.80
67054;SHT31;53960;51.826;5.850;2023-06-14T02:05:59;19.28;49.60
67054;SHT31;53960;51.826;5.850;2023-06-14T02:08:25;19.27;49.56
67054;SHT31;53960;51.826;5.850;2023-06-14T02:10:51;19.32;49.60
67054;SHT31;53960;51.826;5.850;2023-06-14T02:13:16;19.28;49.74
67054;SHT31;53960;51.826;5.850;2023-06-14T02:15:41;19.22;49.80
67054;SHT31;53960;51.826;5.850;2023-06-14T02:18:08;19.14;50.22
67054;SHT31;53960;51.826;5.850;2023-06-14T02:20:34;19.10;50.36
67054;SHT31;53960;51.826;5.850;2023-06-14T02:23:00;19.18;50.29
67054;SHT31;53960;51.826;5.850;2023-06-14T02:25:25;19.11;50.55
67054;SHT31;53960;51.826;5.850;2023-06-14T02:27:52;19.07;50.49
67054;SHT31;53960;51.826;5.850;2023-06-14T02:30:17;19.06;50.35
67054;SHT31;53960;51.826;5.850;2023-06-14T02:32:43;19.04;50.53
67054;SHT31;53960;51.826;5.850;2023-06-14T02:35:08;18.96;50.92
67054;SHT31;53960;51.826;5.850;2023-06-14T02:37:34;19.07;50.80
67054;SHT31;53960;51.826;5.850;2023-06-14T02:40:00;19.01;50.81
67054;SHT31;53960;51.826;5.850;2023-06-14T02:42:25;19.04;50.75
67054;SHT31;53960;51.826;5.850;2023-06-14T02:44:51;18.83;51.45
67054;SHT31;53960;51.826;5.850;2023-06-14T02:47:17;18.84;51.39
67054;SHT31;53960;51.826;5.850;2023-06-14T02:49:43;18.87;51.37
67054;SHT31;53960;51.826;5.850;2023-06-14T02:52:09;18.86;51.45
67054;SHT31;53960;51.826;5.850;2023-06-14T02:54:34;18.80;51.58
67054;SHT31;53960;51.826;5.850;2023-06-14T02:56:59;18.69;51.93
67054;SHT31;53960;51.826;5.850;2023-06-14T02:59:25;18.73;51.98
67054;SHT31;53960;51.826;5.850;2023-06-14T03:01:51;18.70;52.40
67054;SHT31;53960;51.826;5.850;2023-06-14T03:04:16;18.63;52.26
67054;SHT31;53960;51.826;5.850;2023-06-14T03:06:42;18.53;52.88
67054;SHT31;53960;51.826;5.850;2023-06-14T03:09:09;18.55;52.52
67054;SHT31;53960;51.826;5.850;2023-06-14T03:11:34;18.55;52.57
67054;SHT31;53960;51.826;5.850;2023-06-14T03:14:01;18.46;52.80
67054;SHT31;53960;51.826;5.850;2023-06-14T03:16:28;18.49;52.74
67054;SHT31;53960;51.826;5.850;2023-06-14T03:18:55;18.46;52.89
67054;SHT31;53960;51.826;5.850;2023-06-14T03:21:20;18.49;52.88
67054;SHT31;53960;51.826;5.850;2023-06-14T03:23:47;18.46;53.01
67054;SHT31;53960;51.826;5.850;2023-06-14T03:26:13;18.43;53.21
67054;SHT31;53960;51.826;5.850;2023-06-14T03:28:39;18.53;52.91
67054;SHT31;53960;51.826;5.850;2023-06-14T03:31:05;18.39;53.42
67054;SHT31;53960;51.826;5.850;2023-06-14T03:33:30;18.35;53.42
67054;SHT31;53960;51.826;5.850;2023-06-14T03:35:56;18.25;53.81
67054;SHT31;53960;51.826;5.850;2023-06-14T03:38:22;18.32;53.77
67054;SHT31;53960;51.826;5.850;2023-06-14T03:40:47;18.22;54.11
67054;SHT31;53960;51.826;5.850;2023-06-14T03:43:12;18.15;54.33
67054;SHT31;53960;51.826;5.850;2023-06-14T03:45:38;18.12;54.45
67054;SHT31;53960;51.826;5.850;2023-06-14T03:48:03;18.14;54.43
67054;SHT31;53960;51.826;5.850;2023-06-14T03:50:31;18.19;54.53
67054;SHT31;53960;51.826;5.850;2023-06-14T03:52:57;18.14;54.64
67054;SHT31;53960;51.826;5.850;2023-06-14T03:55:22;18.16;54.50
67054;SHT31;53960;51.826;5.850;2023-06-14T03:57:50;18.16;54.71
67054;SHT31;53960;51.826;5.850;2023-06-14T04:00:16;18.06;55.01
67054;SHT31;53960;51.826;5.850;2023-06-14T04:02:41;18.04;55.20
67054;SHT31;53960;51.826;5.850;2023-06-14T04:05:09;18.02;55.33
67054;SHT31;53960;51.826;5.850;2023-06-14T04:07:34;17.97;55.50
67054;SHT31;53960;51.826;5.850;2023-06-14T04:10:06;17.88;55.78
67054;SHT31;53960;51.826;5.850;2023-06-14T04:12:33;17.93;55.95
67054;SHT31;53960;51.826;5.850;2023-06-14T04:14:58;17.98;56.00
67054;SHT31;53960;51.826;5.850;2023-06-14T04:17:23;18.08;55.62
67054;SHT31;53960;51.826;5.850;2023-06-14T04:19:49;18.06;55.66
67054;SHT31;53960;51.826;5.850;2023-06-14T04:22:14;18.09;55.93
67054;SHT31;53960;51.826;5.850;2023-06-14T04:24:39;18.11;55.61
67054;SHT31;53960;51.826;5.850;2023-06-14T04:27:10;18.08;55.85
67054;SHT31;53960;51.826;5.850;2023-06-14T04:29:36;18.06;55.98
67054;SHT31;53960;51.826;5.850;2023-06-14T04:32:01;18.05;55.98
67054;SHT31;53960;51.826;5.850;2023-06-14T04:34:27;18.09;56.03
67054;SHT31;53960;51.826;5.850;2023-06-14T04:36:58;18.16;55.77
67054;SHT31;53960;51.826;5.850;2023-06-14T04:39:25;18.12;56.12
67054;SHT31;53960;51.826;5.850;2023-06-14T04:41:51;18.12;55.95
67054;SHT31;53960;51.826;5.850;2023-06-14T04:44:18;18.12;56.33
67054;SHT31;53960;51.826;5.850;2023-06-14T04:46:45;18.14;55.96
67054;SHT31;53960;51.826;5.850;2023-06-14T04:49:14;18.24;55.91
67054;SHT31;53960;51.826;5.850;2023-06-14T04:51:43;18.22;56.13
67054;SHT31;53960;51.826;5.850;2023-06-14T04:54:09;18.22;56.09
67054;SHT31;53960;51.826;5.850;2023-06-14T04:56:41;18.31;56.35
67054;SHT31;53960;51.826;5.850;2023-06-14T04:59:13;18.28;56.32
67054;SHT31;53960;51.826;5.850;2023-06-14T05:01:40;18.31;56.12
67054;SHT31;53960;51.826;5.850;2023-06-14T05:04:06;18.28;56.42
67054;SHT31;53960;51.826;5.850;2023-06-14T05:06:31;18.31;57.21
67054;SHT31;53960;51.826;5.850;2023-06-14T05:08:56;18.31;56.85
67054;SHT31;53960;51.826;5.850;2023-06-14T05:11:22;18.28;56.73
67054;SHT31;53960;51.826;5.850;2023-06-14T05:13:49;18.38;56.35
67054;SHT31;53960;51.826;5.850;2023-06-14T05:16:15;18.39;56.19
67054;SHT31;53960;51.826;5.850;2023-06-14T05:18:42;18.52;56.60
67054;SHT31;53960;51.826;5.850;2023-06-14T05:21:07;18.60;55.94
67054;SHT31;53960;51.826;5.850;2023-06-14T05:23:33;18.66;55.75
67054;SHT31;53960;51.826;5.850;2023-06-14T05:25:59;18.55;56.23
67054;SHT31;53960;51.826;5.850;2023-06-14T05:28:24;18.57;56.46
67054;SHT31;53960;51.826;5.850;2023-06-14T05:30:51;18.63;56.50
67054;SHT31;53960;51.826;5.850;2023-06-14T05:33:16;18.79;56.26
67054;SHT31;53960;51.826;5.850;2023-06-14T05:35:41;18.83;56.07
67054;SHT31;53960;51.826;5.850;2023-06-14T05:38:07;18.82;55.98
67054;SHT31;53960;51.826;5.850;2023-06-14T05:40:33;18.90;55.80
67054;SHT31;53960;51.826;5.850;2023-06-14T05:42:58;18.96;56.00
67054;SHT31;53960;51.826;5.850;2023-06-14T05:45:23;18.97;55.74
67054;SHT31;53960;51.826;5.850;2023-06-14T05:47:49;19.00;55.80
67054;SHT31;53960;51.826;5.850;2023-06-14T05:50:15;18.97;55.80
67054;SHT31;53960;51.826;5.850;2023-06-14T05:52:41;19.06;55.78
67054;SHT31;53960;51.826;5.850;2023-06-14T05:55:06;19.15;55.51
67054;SHT31;53960;51.826;5.850;2023-06-14T05:57:32;19.22;55.04
67054;SHT31;53960;51.826;5.850;2023-06-14T05:59:57;19.27;55.58
67054;SHT31;53960;51.826;5.850;2023-06-14T06:02:22;19.28;54.95
67054;SHT31;53960;51.826;5.850;2023-06-14T06:04:48;19.38;55.26
67054;SHT31;53960;51.826;5.850;2023-06-14T06:07:13;19.45;54.85
67054;SHT31;53960;51.826;5.850;2023-06-14T06:09:38;19.51;54.93
67054;SHT31;53960;51.826;5.850;2023-06-14T06:12:05;19.57;53.68
67054;SHT31;53960;51.826;5.850;2023-06-14T06:14:32;19.61;53.57
67054;SHT31;53960;51.826;5.850;2023-06-14T06:16:57;19.68;53.21
67054;SHT31;53960;51.826;5.850;2023-06-14T06:19:22;19.63;53.04
67054;SHT31;53960;51.826;5.850;2023-06-14T06:21:48;19.75;53.09
67054;SHT31;53960;51.826;5.850;2023-06-14T06:24:13;19.85;53.33
67054;SHT31;53960;51.826;5.850;2023-06-14T06:26:38;19.92;52.77
67054;SHT31;53960;51.826;5.850;2023-06-14T06:29:05;20.00;53.49
67054;SHT31;53960;51.826;5.850;2023-06-14T06:31:30;20.13;53.22
67054;SHT31;53960;51.826;5.850;2023-06-14T06:33:55;20.19;53.09
67054;SHT31;53960;51.826;5.850;2023-06-14T06:36:21;20.30;52.69
67054;SHT31;53960;51.826;5.850;2023-06-14T06:38:47;20.40;52.52
67054;SHT31;53960;51.826;5.850;2023-06-14T06:41:12;20.45;52.28
67054;SHT31;53960;51.826;5.850;2023-06-14T06:43:38;20.47;52.37
67054;SHT31;53960;51.826;5.850;2023-06-14T06:46:03;20.55;52.73
67054;SHT31;53960;51.826;5.850;2023-06-14T06:48:28;20.65;52.07
67054;SHT31;53960;51.826;5.850;2023-06-14T06:50:54;20.65;52.05
67054;SHT31;53960;51.826;5.850;2023-06-14T06:53:19;20.74;52.11
67054;SHT31;53960;51.826;5.850;2023-06-14T06:55:44;20.82;52.48
67054;SHT31;53960;51.826;5.850;2023-06-14T06:58:10;20.91;51.90
67054;SHT31;53960;51.826;5.850;2023-06-14T07:00:35;21.00;51.07
67054;SHT31;53960;51.826;5.850;2023-06-14T07:03:01;21.09;50.76
67054;SHT31;53960;51.826;5.850;2023-06-14T07:05:26;21.12;51.05
67054;SHT31;53960;51.826;5.850;2023-06-14T07:07:52;21.20;50.85
67054;SHT31;53960;51.826;5.850;2023-06-14T07:10:17;21.25;50.79
67054;SHT31;53960;51.826;5.850;2023-06-14T07:12:43;21.33;50.27
67054;SHT31;53960;51.826;5.850;2023-06-14T07:15:09;21.39;49.96
67054;SHT31;53960;51.826;5.850;2023-06-14T07:17:35;21.43;49.62
67054;SHT31;53960;51.826;5.850;2023-06-14T07:20:02;21.45;49.72
67054;SHT31;53960;51.826;5.850;2023-06-14T07:22:46;21.56;49.47
67054;SHT31;53960;51.826;5.850;2023-06-14T07:25:11;21.68;49.99
67054;SHT31;53960;51.826;5.850;2023-06-14T07:27:40;21.74;48.42
67054;SHT31;53960;51.826;5.850;2023-06-14T07:30:06;21.83;49.15
67054;SHT31;53960;51.826;5.850;2023-06-14T07:32:32;21.90;48.78
67054;SHT31;53960;51.826;5.850;2023-06-14T07:34:57;22.01;49.04
67054;SHT31;53960;51.826;5.850;2023-06-14T07:37:23;22.15;48.63
67054;SHT31;53960;51.826;5.850;2023-06-14T07:39:48;22.24;47.96
67054;SHT31;53960;51.826;5.850;2023-06-14T07:42:14;22.29;48.08
67054;SHT31;53960;51.826;5.850;2023-06-14T07:44:39;22.41;47.66
67054;SHT31;53960;51.826;5.850;2023-06-14T07:47:04;22.42;46.38
67054;SHT31;53960;51.826;5.850;2023-06-14T07:49:30;22.44;46.24
67054;SHT31;53960;51.826;5.850;2023-06-14T07:51:55;22.41;45.62
67054;SHT31;53960;51.826;5.850;2023-06-14T07:54:21;22.51;46.45
67054;SHT31;53960;51.826;5.850;2023-06-14T07:56:50;22.60;46.06
67054;SHT31;53960;51.826;5.850;2023-06-14T07:59:16;22.70;46.61
67054;SHT31;53960;51.826;5.850;2023-06-14T08:01:41;22.80;46.09
67054;SHT31;53960;51.826;5.850;2023-06-14T08:04:14;22.80;44.72
67054;SHT31;53960;51.826;5.850;2023-06-14T08:06:40;22.90;45.06
67054;SHT31;53960;51.826;5.850;2023-06-14T08:09:09;22.86;43.87
67054;SHT31;53960;51.826;5.850;2023-06-14T08:11:34;22.83;43.76
67054;SHT31;53960;51.826;5.850;2023-06-14T08:14:00;22.92;44.20
67054;SHT31;53960;51.826;5.850;2023-06-14T08:16:25;23.03;44.77
67054;SHT31;53960;51.826;5.850;2023-06-14T08:18:50;23.11;44.31
67054;SHT31;53960;51.826;5.850;2023-06-14T08:21:16;23.21;44.13
67054;SHT31;53960;51.826;5.850;2023-06-14T08:23:41;23.27;43.58
67054;SHT31;53960;51.826;5.850;2023-06-14T08:26:09;23.25;43.72
67054;SHT31;53960;51.826;5.850;2023-06-14T08:28:35;23.27;43.36
67054;SHT31;53960;51.826;5.850;2023-06-14T08:31:00;23.33;43.55
67054;SHT31;53960;51.826;5.850;2023-06-14T08:33:26;23.28;42.93
67054;SHT31;53960;51.826;5.850;2023-06-14T08:35:52;23.33;43.02
67054;SHT31;53960;51.826;5.850;2023-06-14T08:38:17;23.33;41.87
67054;SHT31;53960;51.826;5.850;2023-06-14T08:40:42;23.33;41.41
67054;SHT31;53960;51.826;5.850;2023-06-14T08:43:10;23.38;41.42
67054;SHT31;53960;51.826;5.850;2023-06-14T08:45:35;23.54;42.17
67054;SHT31;53960;51.826;5.850;2023-06-14T08:48:01;23.58;41.79
67054;SHT31;53960;51.826;5.850;2023-06-14T08:50:27;23.68;40.85
67054;SHT31;53960;51.826;5.850;2023-06-14T08:52:58;23.81;41.84
67054;SHT31;53960;51.826;5.850;2023-06-14T08:55:28;24.01;40.26
67054;SHT31;53960;51.826;5.850;2023-06-14T08:57:55;24.03;39.81
67054;SHT31;53960;51.826;5.850;2023-06-14T09:00:23;24.13;40.17
67054;SHT31;53960;51.826;5.850;2023-06-14T09:02:49;24.19;40.90
67054;SHT31;53960;51.826;5.850;2023-06-14T09:05:22;24.14;40.34
67054;SHT31;53960;51.826;5.850;2023-06-14T09:07:48;24.10;40.66
67054;SHT31;53960;51.826;5.850;2023-06-14T09:10:16;24.17;40.97
67054;SHT31;53960;51.826;5.850;2023-06-14T09:12:42;24.24;40.94
67054;SHT31;53960;51.826;5.850;2023-06-14T09:15:08;24.27;40.79
67054;SHT31;53960;51.826;5.850;2023-06-14T09:17:38;24.30;40.21
67054;SHT31;53960;51.826;5.850;2023-06-14T09:20:04;24.30;39.75
67054;SHT31;53960;51.826;5.850;2023-06-14T09:22:34;24.23;39.16
67054;SHT31;53960;51.826;5.850;2023-06-14T09:25:00;24.19;39.19
67054;SHT31;53960;51.826;5.850;2023-06-14T09:27:29;24.22;38.38
67054;SHT31;53960;51.826;5.850;2023-06-14T09:29:54;24.26;37.53
67054;SHT31;53960;51.826;5.850;2023-06-14T09:32:23;24.34;38.05
67054;SHT31;53960;51.826;5.850;2023-06-14T09:34:49;24.43;39.05
67054;SHT31;53960;51.826;5.850;2023-06-14T09:37:31;24.54;40.52
67054;SHT31;53960;51.826;5.850;2023-06-14T09:39:57;24.37;40.04
67054;SHT31;53960;51.826;5.850;2023-06-14T09:42:23;24.49;39.88
67054;SHT31;53960;51.826;5.850;2023-06-14T09:44:51;24.51;39.25
67054;SHT31;53960;51.826;5.850;2023-06-14T09:47:17;24.74;40.15
67054;SHT31;53960;51.826;5.850;2023-06-14T09:49:43;24.61;38.43
67054;SHT31;53960;51.826;5.850;2023-06-14T09:52:12;24.51;38.87
67054;SHT31;53960;51.826;5.850;2023-06-14T09:54:41;24.43;39.67
67054;SHT31;53960;51.826;5.850;2023-06-14T09:57:10;24.33;39.96
67054;SHT31;53960;51.826;5.850;2023-06-14T09:59:41;24.51;40.49
67054;SHT31;53960;51.826;5.850;2023-06-14T10:02:11;24.67;39.66
67054;SHT31;53960;51.826;5.850;2023-06-14T10:04:43;24.82;39.85
67054;SHT31;53960;51.826;5.850;2023-06-14T10:07:11;24.87;39.84
67054;SHT31;53960;51.826;5.850;2023-06-14T10:09:36;24.87;38.34
67054;SHT31;53960;51.826;5.850;2023-06-14T10:12:02;24.81;38.56
67054;SHT31;53960;51.826;5.850;2023-06-14T10:14:28;24.78;37.78
67054;SHT31;53960;51.826;5.850;2023-06-14T10:17:06;24.81;38.32
67054;SHT31;53960;51.826;5.850;2023-06-14T10:19:40;24.65;38.62
67054;SHT31;53960;51.826;5.850;2023-06-14T10:22:14;24.80;38.96
67054;SHT31;53960;51.826;5.850;2023-06-14T10:24:44;25.02;39.93
67054;SHT31;53960;51.826;5.850;2023-06-14T10:27:10;25.09;40.53
67054;SHT31;53960;51.826;5.850;2023-06-14T10:32:19;25.26;39.26
67054;SHT31;53960;51.826;5.850;2023-06-14T10:34:45;25.42;40.04
67054;SHT31;53960;51.826;5.850;2023-06-14T10:37:18;25.39;39.22
67054;SHT31;53960;51.826;5.850;2023-06-14T10:39:44;25.32;38.57
67054;SHT31;53960;51.826;5.850;2023-06-14T10:42:11;25.11;38.91
67054;SHT31;53960;51.826;5.850;2023-06-14T10:47:07;25.29;39.31
67054;SHT31;53960;51.826;5.850;2023-06-14T10:49:43;25.47;40.72
67054;SHT31;53960;51.826;5.850;2023-06-14T10:52:16;25.53;38.49
67054;SHT31;53960;51.826;5.850;2023-06-14T10:57:41;25.59;38.14
67054;SHT31;53960;51.826;5.850;2023-06-14T11:00:07;25.65;37.94
67054;SHT31;53960;51.826;5.850;2023-06-14T11:02:54;25.60;36.61
67054;SHT31;53960;51.826;5.850;2023-06-14T11:05:28;25.70;37.70
67054;SHT31;53960;51.826;5.850;2023-06-14T11:08:10;25.39;36.99
67054;SHT31;53960;51.826;5.850;2023-06-14T11:10:41;25.36;37.16
67054;SHT31;53960;51.826;5.850;2023-06-14T11:13:08;25.22;37.24
67054;SHT31;53960;51.826;5.850;2023-06-14T11:15:36;25.32;37.50
67054;SHT31;53960;51.826;5.850;2023-06-14T11:18:06;25.49;37.75
67054;SHT31;53960;51.826;5.850;2023-06-14T11:20:33;25.54;38.21
67054;SHT31;53960;51.826;5.850;2023-06-14T11:22:59;25.58;37.53
67054;SHT31;53960;51.826;5.850;2023-06-14T11:25:25;25.58;36.55
67054;SHT31;53960;51.826;5.850;2023-06-14T11:27:51;25.56;37.19
67054;SHT31;53960;51.826;5.850;2023-06-14T11:30:17;25.43;36.38
67054;SHT31;53960;51.826;5.850;2023-06-14T11:32:45;25.51;36.67
67054;SHT31;53960;51.826;5.850;2023-06-14T11:35:10;25.59;37.27
67054;SHT31;53960;51.826;5.850;2023-06-14T11:37:36;25.81;37.35
67054;SHT31;53960;51.826;5.850;2023-06-14T11:40:04;25.98;37.57
67054;SHT31;53960;51.826;5.850;2023-06-14T11:42:37;25.97;36.53
67054;SHT31;53960;51.826;5.850;2023-06-14T11:45:03;25.87;36.72
67054;SHT31;53960;51.826;5.850;2023-06-14T11:47:38;25.87;37.15
67054;SHT31;53960;51.826;5.850;2023-06-14T11:50:06;25.83;36.68
67054;SHT31;53960;51.826;5.850;2023-06-14T11:52:32;25.74;36.87
67054;SHT31;53960;51.826;5.850;2023-06-14T11:54:57;25.76;37.29
67054;SHT31;53960;51.826;5.850;2023-06-14T11:57:24;25.89;37.24
67054;SHT31;53960;51.826;5.850;2023-06-14T11:59:49;25.81;36.72
67054;SHT31;53960;51.826;5.850;2023-06-14T12:02:16;26.01;38.89
67054;SHT31;53960;51.826;5.850;2023-06-14T12:04:42;26.17;38.45
67054;SHT31;53960;51.826;5.850;2023-06-14T12:07:12;26.21;37.40
67054;SHT31;53960;51.826;5.850;2023-06-14T12:12:16;25.91;36.10
67054;SHT31;53960;51.826;5.850;2023-06-14T12:14:42;25.84;37.39
67054;SHT31;53960;51.826;5.850;2023-06-14T12:17:07;25.79;37.58
67054;SHT31;53960;51.826;5.850;2023-06-14T12:19:36;25.67;38.45
67054;SHT31;53960;51.826;5.850;2023-06-14T12:22:09;25.81;38.23
67054;SHT31;53960;51.826;5.850;2023-06-14T12:24:34;25.90;38.30
67054;SHT31;53960;51.826;5.850;2023-06-14T12:27:00;26.02;39.16
67054;SHT31;53960;51.826;5.850;2023-06-14T12:29:28;26.20;39.15
67054;SHT31;53960;51.826;5.850;2023-06-14T12:31:53;26.31;37.80
67054;SHT31;53960;51.826;5.850;2023-06-14T12:34:19;26.44;38.17
67054;SHT31;53960;51.826;5.850;2023-06-14T12:36:45;26.47;37.05
67054;SHT31;53960;51.826;5.850;2023-06-14T12:39:11;26.39;36.20
67054;SHT31;53960;51.826;5.850;2023-06-14T12:41:37;26.32;36.11
67054;SHT31;53960;51.826;5.850;2023-06-14T12:44:02;26.21;36.20
67054;SHT31;53960;51.826;5.850;2023-06-14T12:46:30;26.22;35.49
67054;SHT31;53960;51.826;5.850;2023-06-14T12:48:56;26.14;36.04
67054;SHT31;53960;51.826;5.850;2023-06-14T12:51:21;26.42;37.77
67054;SHT31;53960;51.826;5.850;2023-06-14T12:53:47;26.42;35.47
67054;SHT31;53960;51.826;5.850;2023-06-14T12:56:14;26.52;36.82
67054;SHT31;53960;51.826;5.850;2023-06-14T12:58:39;26.35;36.23
67054;SHT31;53960;51.826;5.850;2023-06-14T13:01:05;26.38;36.70
67054;SHT31;53960;51.826;5.850;2023-06-14T13:03:30;26.25;36.47
67054;SHT31;53960;51.826;5.850;2023-06-14T13:05:56;26.16;36.83
67054;SHT31;53960;51.826;5.850;2023-06-14T13:08:21;26.35;37.16
67054;SHT31;53960;51.826;5.850;2023-06-14T13:10:47;26.48;37.08
67054;SHT31;53960;51.826;5.850;2023-06-14T13:13:12;26.52;34.80
67054;SHT31;53960;51.826;5.850;2023-06-14T13:15:38;26.53;35.76
67054;SHT31;53960;51.826;5.850;2023-06-14T13:18:04;26.48;35.18
67054;SHT31;53960;51.826;5.850;2023-06-14T13:20:31;26.32;35.21
67054;SHT31;53960;51.826;5.850;2023-06-14T13:22:56;26.41;34.79
67054;SHT31;53960;51.826;5.850;2023-06-14T13:25:22;26.42;36.01
67054;SHT31;53960;51.826;5.850;2023-06-14T13:27:48;26.51;36.06
67054;SHT31;53960;51.826;5.850;2023-06-14T13:30:13;26.45;35.74
67054;SHT31;53960;51.826;5.850;2023-06-14T13:32:38;26.49;36.14
67054;SHT31;53960;51.826;5.850;2023-06-14T13:35:04;26.42;35.74
67054;SHT31;53960;51.826;5.850;2023-06-14T13:37:30;26.52;36.32
67054;SHT31;53960;51.826;5.850;2023-06-14T13:39:55;26.59;36.10
67054;SHT31;53960;51.826;5.850;2023-06-14T13:42:20;26.66;36.10
67054;SHT31;53960;51.826;5.850;2023-06-14T13:44:46;26.76;36.14
67054;SHT31;53960;51.826;5.850;2023-06-14T13:47:11;26.73;35.47
67054;SHT31;53960;51.826;5.850;2023-06-14T13:49:37;26.76;36.62
67054;SHT31;53960;51.826;5.850;2023-06-14T13:52:03;26.78;36.42
67054;SHT31;53960;51.826;5.850;2023-06-14T13:54:28;26.83;37.49
67054;SHT31;53960;51.826;5.850;2023-06-14T13:56:54;26.76;36.21
67054;SHT31;53960;51.826;5.850;2023-06-14T13:59:19;26.76;36.48
67054;SHT31;53960;51.826;5.850;2023-06-14T14:01:45;26.63;36.43
67054;SHT31;53960;51.826;5.850;2023-06-14T14:04:10;26.68;36.37
67054;SHT31;53960;51.826;5.850;2023-06-14T14:06:36;26.63;35.89
67054;SHT31;53960;51.826;5.850;2023-06-14T14:09:02;26.60;35.84
67054;SHT31;53960;51.826;5.850;2023-06-14T14:11:27;26.59;36.17
67054;SHT31;53960;51.826;5.850;2023-06-14T14:13:53;26.52;35.95
67054;SHT31;53960;51.826;5.850;2023-06-14T14:16:19;26.49;36.04
67054;SHT31;53960;51.826;5.850;2023-06-14T14:18:46;26.47;36.39
67054;SHT31;53960;51.826;5.850;2023-06-14T14:21:11;26.53;36.50
67054;SHT31;53960;51.826;5.850;2023-06-14T14:23:36;26.47;36.65
67054;SHT31;53960;51.826;5.850;2023-06-14T14:26:02;26.52;36.68
67054;SHT31;53960;51.826;5.850;2023-06-14T14:28:30;26.52;37.40
67054;SHT31;53960;51.826;5.850;2023-06-14T14:30:55;26.62;37.33
67054;SHT31;53960;51.826;5.850;2023-06-14T14:33:21;26.65;37.36
67054;SHT31;53960;51.826;5.850;2023-06-14T14:35:46;26.76;37.28
67054;SHT31;53960;51.826;5.850;2023-06-14T14:38:12;26.86;37.52
67054;SHT31;53960;51.826;5.850;2023-06-14T14:40:39;27.07;37.82
67054;SHT31;53960;51.826;5.850;2023-06-14T14:43:05;27.11;36.82
67054;SHT31;53960;51.826;5.850;2023-06-14T14:45:30;27.07;36.26
67054;SHT31;53960;51.826;5.850;2023-06-14T14:47:56;26.90;35.59
67054;SHT31;53960;51.826;5.850;2023-06-14T14:50:21;26.95;36.19
67054;SHT31;53960;51.826;5.850;2023-06-14T14:52:47;26.80;36.40
67054;SHT31;53960;51.826;5.850;2023-06-14T14:55:12;26.80;35.76
67054;SHT31;53960;51.826;5.850;2023-06-14T14:57:37;26.72;36.02
67054;SHT31;53960;51.826;5.850;2023-06-14T15:00:06;26.68;36.46
67054;SHT31;53960;51.826;5.850;2023-06-14T15:02:31;26.85;36.33
67054;SHT31;53960;51.826;5.850;2023-06-14T15:04:57;27.02;37.17
67054;SHT31;53960;51.826;5.850;2023-06-14T15:07:27;27.17;35.91
67054;SHT31;53960;51.826;5.850;2023-06-14T15:09:54;27.14;35.34
67054;SHT31;53960;51.826;5.850;2023-06-14T15:12:19;26.92;35.84
67054;SHT31;53960;51.826;5.850;2023-06-14T15:14:51;26.99;36.07
67054;SHT31;53960;51.826;5.850;2023-06-14T15:17:17;27.07;36.03
67054;SHT31;53960;51.826;5.850;2023-06-14T15:19:44;26.99;36.09
67054;SHT31;53960;51.826;5.850;2023-06-14T15:22:09;26.89;36.51
67054;SHT31;53960;51.826;5.850;2023-06-14T15:24:35;26.93;36.66
67054;SHT31;53960;51.826;5.850;2023-06-14T15:27:00;27.24;37.01
67054;SHT31;53960;51.826;5.850;2023-06-14T15:29:25;27.18;36.45
67054;SHT31;53960;51.826;5.850;2023-06-14T15:31:51;27.16;36.05
67054;SHT31;53960;51.826;5.850;2023-06-14T15:34:16;27.23;36.20
67054;SHT31;53960;51.826;5.850;2023-06-14T15:36:41;27.02;36.14